Terminal Aerodrome Forecast
Issued by NWS

Home | Current Version | Previous Version | Text Only | Print | Product List | Glossary On
Versions: 1 2 3 4 5 6 7 8 9 10 11 12 13
000
FTUS44 KLZK 291739
TAFHOT
TAF
KHOT 291739Z 2918/3018 19005KT P6SM VCSH SCT040 BKN100
     FM292100 20003KT P6SM BKN060
     FM300100 13003KT P6SM SCT050
     FM301500 19005KT P6SM BKN050=

USA.gov is the U.S. government's official web portal to all federal, state and local government web resources and services.